PAYA/YAK METAR and TAF weather

Enter ICAO airport designator
Station Type Date Time Source
PAYA METAR 2022/01/23 12:53 UTC NOAA

PAYA 231253Z AUTO 00000KT 8SM -RA FEW016 OVC025 03/02 A3012 RMK AO2 SLP200 P0002 T00330022 TSNO $


Station Type Date Time Source
PAYA Decoded METAR 2022/01/23 12:53 UTC NOAA

YAKUTAT AIRPORT, AK, United States (PAYA) 59-30N 139-40W 9M
Jan 23, 2022 - 07:53 AM EST / 2022.01.23 1253 UTC
Wind: Calm:0
Visibility: 8 mile(s):0
Sky conditions: overcast
Weather: light rain
Precipitation last hour: 0.02 inches
Temperature: 37.9 F (3.3 C)
Dew Point: 36.0 F (2.2 C)
Relative Humidity: 92%
Pressure (altimeter): 30.12 in. Hg (1019 hPa)
ob: PAYA 231253Z AUTO 00000KT 8SM -RA FEW016 OVC025 03/02 A3012 RMK AO2 SLP200 P0002 T00330022 TSNO
cycle: 13

Station Type Date Time Source
PAYA TAF 2022/01/23 13:45 UTC NOAA

TAF
AMD PAYA 231242Z 2313/2412 00000KT 4SM -RA BR SCT016 OVC023
FM231800 08003KT 4SM BR VCSH OVC007
FM240900 09004KT P6SM SCT007 OVC015
AMD LTD TO CLD VIS AND WIND

Example: see airport list